Washington, Iowa
Current Conditions -  °F | °C
As of 6:15 AM on Thursday 29 Jan 2015 (Local Time) from KAWG Reporting Station
Overcast Overcast  
Wind Chill: 24°   Ceiling: 1600
Heat Index: 36°   Visibility: 9mi
Dew Point: 34°   Wind: 24mph
Humidity: 93%   Direction: 320°NW
Pressure: 29.96"   Gusts: 31mph
Location:  41.3°N, 91.69°W
Report Text: KAWG 291215Z AUTO 32021G27KT 9SM OVC016 02/01 A2996 RMK AO2
Loading
Personal Weather Stations






























Interactive Weather Map New forecast layout! Learn more

10-Day Weather Forecast

Advertisements
Track Severe Weather on mobile